createdAt,value
2018-07-15T00:01:51.975Z,24.10
2018-07-15T00:06:55.184Z,24.00
2018-07-15T00:11:58.396Z,24.00
2018-07-15T00:17:01.746Z,23.90
2018-07-15T00:22:04.915Z,23.90
2018-07-15T00:27:08.125Z,23.70
2018-07-15T00:32:11.282Z,23.80
2018-07-15T00:37:14.547Z,23.80
2018-07-15T00:42:17.755Z,23.70
2018-07-15T00:47:21.070Z,23.70
2018-07-15T00:52:24.277Z,23.60
2018-07-15T00:57:27.590Z,23.60
2018-07-15T01:02:30.906Z,23.50
2018-07-15T01:07:34.419Z,23.50
2018-07-15T01:12:37.731Z,23.50
2018-07-15T01:17:40.955Z,23.50
2018-07-15T01:22:44.252Z,23.40
2018-07-15T01:27:47.564Z,23.40
2018-07-15T01:32:50.783Z,23.40
2018-07-15T01:37:53.969Z,23.30
2018-07-15T01:42:57.192Z,23.30
2018-07-15T01:48:00.504Z,23.30
2018-07-15T01:53:03.817Z,23.30
2018-07-15T01:58:07.129Z,23.20
2018-07-15T02:03:10.440Z,23.20
2018-07-15T02:08:13.753Z,23.10
2018-07-15T02:13:17.065Z,23.10
2018-07-15T02:18:20.273Z,23.10
2018-07-15T02:23:23.494Z,23.10
2018-07-15T02:28:26.794Z,23.00
2018-07-15T02:38:33.111Z,22.90
2018-07-15T02:43:36.312Z,22.90
2018-07-15T02:48:39.530Z,22.90
2018-07-15T02:53:42.739Z,22.80
2018-07-15T02:58:46.052Z,22.80
2018-07-15T03:03:49.484Z,22.50
2018-07-15T03:08:52.778Z,22.50
2018-07-15T03:13:56.090Z,22.70
2018-07-15T03:18:59.303Z,22.40
2018-07-15T03:24:02.528Z,22.60
2018-07-15T03:29:05.734Z,22.70
2018-07-15T03:34:09.048Z,22.80
2018-07-15T03:39:12.239Z,22.60
2018-07-15T03:44:15.551Z,22.60
2018-07-15T03:49:18.731Z,22.50
2018-07-15T03:54:22.073Z,22.40
2018-07-15T04:04:28.289Z,22.40
2018-07-15T04:09:31.503Z,22.40
2018-07-15T04:14:34.816Z,22.30
2018-07-15T04:19:38.532Z,22.20
2018-07-15T04:24:41.743Z,22.30
2018-07-15T04:29:44.952Z,22.10
2018-07-15T04:34:48.102Z,22.30
2018-07-15T04:39:51.370Z,22.20
2018-07-15T04:44:54.683Z,22.40
2018-07-15T04:49:57.994Z,22.20
2018-07-15T04:55:01.151Z,22.20
2018-07-15T05:00:04.720Z,22.20
2018-07-15T05:10:10.934Z,22.30
2018-07-15T05:15:14.143Z,22.20
2018-07-15T05:20:17.456Z,21.90
2018-07-15T05:25:20.666Z,22.20
2018-07-15T05:30:23.978Z,21.70
2018-07-15T05:35:27.290Z,22.20
2018-07-15T05:40:30.535Z,22.30
2018-07-15T05:45:33.812Z,22.20
2018-07-15T05:50:37.019Z,22.30
2018-07-15T05:55:40.230Z,22.30
2018-07-15T06:00:43.391Z,22.00
2018-07-15T06:05:47.572Z,22.20
2018-07-15T06:10:51.076Z,22.60
2018-07-15T06:20:57.405Z,21.90
2018-07-15T06:26:00.615Z,22.40
2018-07-15T06:31:03.973Z,22.30
2018-07-15T06:36:07.238Z,22.50
2018-07-15T06:41:10.446Z,22.40
2018-07-15T06:46:13.631Z,22.50
2018-07-15T06:51:16.866Z,22.60
2018-07-15T06:56:20.076Z,22.70
2018-07-15T07:01:23.412Z,22.60
2018-07-15T07:06:26.700Z,22.60
2018-07-15T07:11:30.012Z,22.90
2018-07-15T07:16:33.220Z,22.90
2018-07-15T07:21:36.430Z,23.10
2018-07-15T07:26:39.640Z,23.20
2018-07-15T07:31:42.848Z,23.10
2018-07-15T07:36:46.059Z,23.10
2018-07-15T07:41:49.266Z,23.20
2018-07-15T07:46:52.602Z,23.40
2018-07-15T07:51:55.754Z,23.10
2018-07-15T07:56:58.999Z,23.40
2018-07-15T08:02:02.229Z,23.50
2018-07-15T08:07:05.417Z,23.20
2018-07-15T08:12:08.627Z,23.70
2018-07-15T08:17:11.836Z,23.70
2018-07-15T08:22:15.046Z,23.80
2018-07-15T08:27:18.254Z,23.90
2018-07-15T08:32:21.464Z,24.00
2018-07-15T08:37:24.677Z,24.00
2018-07-15T08:42:27.883Z,24.10
2018-07-15T08:47:31.092Z,24.20
2018-07-15T08:52:34.406Z,24.30
2018-07-15T08:57:37.567Z,24.40
2018-07-15T09:02:40.824Z,24.50
2018-07-15T09:07:44.033Z,24.60
2018-07-15T09:12:47.368Z,24.60
2018-07-15T09:17:50.539Z,24.70
2018-07-15T09:22:53.968Z,24.80
2018-07-15T09:27:57.349Z,24.90
2018-07-15T09:33:00.592Z,25.00
2018-07-15T09:38:03.800Z,25.10
2018-07-15T09:43:06.991Z,25.20
2018-07-15T09:48:10.220Z,25.20
2018-07-15T09:53:13.428Z,25.30
2018-07-15T09:58:16.612Z,25.40
2018-07-15T10:03:19.859Z,25.50
2018-07-15T10:13:26.882Z,25.70
2018-07-15T10:18:30.090Z,25.80
2018-07-15T10:23:33.300Z,25.90
2018-07-15T10:28:36.509Z,25.90
2018-07-15T10:33:39.717Z,26.00
2018-07-15T10:38:43.030Z,26.20
2018-07-15T10:43:46.342Z,26.20
2018-07-15T10:48:49.550Z,26.30
2018-07-15T10:53:52.760Z,26.40
2018-07-15T10:58:56.072Z,26.40
2018-07-15T11:03:59.384Z,26.50
2018-07-15T11:09:02.638Z,26.50
2018-07-15T11:14:06.009Z,26.60
2018-07-15T11:19:09.216Z,26.70
2018-07-15T11:24:12.425Z,26.80
2018-07-15T11:29:15.634Z,26.80
2018-07-15T11:34:18.844Z,26.90
2018-07-15T11:39:22.055Z,27.00
2018-07-15T11:44:25.374Z,27.10
2018-07-15T11:49:28.678Z,27.20
2018-07-15T11:54:32.014Z,27.20
2018-07-15T11:59:35.301Z,27.20
2018-07-15T12:04:38.612Z,27.30
2018-07-15T12:09:41.926Z,27.30
2018-07-15T12:14:45.123Z,27.40
2018-07-15T12:24:51.553Z,27.60
2018-07-15T12:29:54.761Z,27.60
2018-07-15T12:34:57.971Z,27.60
2018-07-15T12:40:01.180Z,27.60
2018-07-15T12:45:04.494Z,27.60
2018-07-15T12:50:07.702Z,27.70
2018-07-15T12:55:10.912Z,27.80
2018-07-15T13:00:14.163Z,27.80
2018-07-15T13:05:17.435Z,27.80
2018-07-15T13:10:20.642Z,27.80
2018-07-15T13:15:23.960Z,27.90
2018-07-15T13:20:27.123Z,27.90
2018-07-15T13:25:30.373Z,27.90
2018-07-15T13:30:33.684Z,27.90
2018-07-15T13:35:36.997Z,27.90
2018-07-15T13:40:40.210Z,28.00
2018-07-15T13:45:43.414Z,28.00
2018-07-15T13:50:46.727Z,28.00
2018-07-15T13:55:49.935Z,28.00
2018-07-15T14:00:53.145Z,28.00
2018-07-15T14:05:56.355Z,28.10
2018-07-15T14:10:59.769Z,28.00
2018-07-15T14:16:02.977Z,28.10
2018-07-15T14:21:06.659Z,28.10
2018-07-15T14:26:10.103Z,28.00
2018-07-15T14:31:13.323Z,28.10
2018-07-15T14:36:16.636Z,28.10
2018-07-15T14:41:19.844Z,28.10
2018-07-15T14:46:23.157Z,28.10
2018-07-15T14:51:26.365Z,28.20
2018-07-15T14:56:29.574Z,28.10
2018-07-15T15:01:32.784Z,28.20
2018-07-15T15:06:35.994Z,28.10
2018-07-15T15:11:39.195Z,28.10
2018-07-15T15:16:42.413Z,28.20
2018-07-15T15:21:45.625Z,28.20
2018-07-15T15:26:48.834Z,28.20
2018-07-15T15:31:52.015Z,28.20
2018-07-15T15:36:55.255Z,28.20
2018-07-15T15:41:58.478Z,28.20
2018-07-15T15:47:01.779Z,28.20
2018-07-15T15:52:05.086Z,28.20
2018-07-15T15:57:08.296Z,28.20
2018-07-15T16:02:11.505Z,28.20
2018-07-15T16:07:14.715Z,28.20
2018-07-15T16:12:17.923Z,28.20
2018-07-15T16:17:21.237Z,28.20
2018-07-15T16:22:24.552Z,28.20
2018-07-15T16:27:27.860Z,28.20
2018-07-15T16:32:31.068Z,28.10
2018-07-15T16:37:34.231Z,28.10
2018-07-15T16:42:37.489Z,28.10
2018-07-15T16:47:40.801Z,28.10
2018-07-15T16:52:44.015Z,28.10
2018-07-15T16:57:47.217Z,28.10
2018-07-15T17:02:50.433Z,28.10
2018-07-15T17:07:53.636Z,28.00
2018-07-15T17:12:56.950Z,27.90
2018-07-15T17:18:00.159Z,27.90
2018-07-15T17:23:03.369Z,27.90
2018-07-15T17:28:06.577Z,28.00
2018-07-15T17:33:09.889Z,28.00
2018-07-15T17:38:13.099Z,28.00
2018-07-15T17:43:16.259Z,28.00
2018-07-15T17:48:19.517Z,28.00
2018-07-15T17:53:22.727Z,28.00
2018-07-15T17:58:25.958Z,28.00
2018-07-15T18:03:29.145Z,28.00
2018-07-15T18:08:32.460Z,28.00
2018-07-15T18:13:35.769Z,28.10
2018-07-15T18:18:38.978Z,28.10
2018-07-15T18:23:42.291Z,28.10
2018-07-15T18:28:45.499Z,28.00
2018-07-15T18:33:48.711Z,28.00
2018-07-15T18:38:51.891Z,27.90
2018-07-15T18:43:55.091Z,27.80
2018-07-15T18:48:58.295Z,27.70
2018-07-15T18:54:01.549Z,27.70
2018-07-15T18:59:04.911Z,27.60
2018-07-15T19:04:08.071Z,27.60
2018-07-15T19:09:11.279Z,27.50
2018-07-15T19:14:14.592Z,27.40
2018-07-15T19:19:17.801Z,27.40
2018-07-15T19:24:21.011Z,27.30
2018-07-15T19:29:24.323Z,27.20
2018-07-15T19:34:27.532Z,27.20
2018-07-15T19:44:33.848Z,27.10
2018-07-15T19:49:37.058Z,27.00
2018-07-15T19:54:40.243Z,26.90
2018-07-15T19:59:43.580Z,26.90
2018-07-15T20:04:46.767Z,26.90
2018-07-15T20:09:50.000Z,26.80
2018-07-15T20:14:53.200Z,26.80
2018-07-15T20:19:56.453Z,26.60
2018-07-15T20:24:59.735Z,26.60
2018-07-15T20:30:02.943Z,26.60
2018-07-15T20:35:06.153Z,26.50
2018-07-15T20:40:09.363Z,26.40
2018-07-15T20:45:12.572Z,26.40
2018-07-15T20:50:15.812Z,26.30
2018-07-15T20:55:18.992Z,26.20
2018-07-15T21:00:22.201Z,26.20
2018-07-15T21:05:25.515Z,26.10
2018-07-15T21:10:28.721Z,26.00
2018-07-15T21:15:31.930Z,26.00
2018-07-15T21:20:35.123Z,25.90
2018-07-15T21:25:38.469Z,25.90
2018-07-15T21:30:41.661Z,25.80
2018-07-15T21:35:44.871Z,25.80
2018-07-15T21:40:48.083Z,25.70
2018-07-15T21:45:51.290Z,25.60
2018-07-15T21:50:54.498Z,25.50
2018-07-15T21:55:57.815Z,25.50
2018-07-15T22:01:01.124Z,25.40
2018-07-15T22:06:04.336Z,25.40
2018-07-15T22:11:07.644Z,25.30
2018-07-15T22:16:10.853Z,25.30
2018-07-15T22:21:14.178Z,25.20
2018-07-15T22:26:17.367Z,25.10
2018-07-15T22:36:23.593Z,25.10
2018-07-15T22:41:26.800Z,25.00
2018-07-15T22:46:30.011Z,24.90
2018-07-15T22:51:33.216Z,24.90
2018-07-15T22:56:36.426Z,24.80
2018-07-15T23:01:39.739Z,24.80
2018-07-15T23:06:42.947Z,24.70
2018-07-15T23:11:46.157Z,24.70
2018-07-15T23:16:49.366Z,24.60
2018-07-15T23:21:52.575Z,24.60
2018-07-15T23:26:55.785Z,24.60
2018-07-15T23:31:58.967Z,24.50
2018-07-15T23:37:02.205Z,24.50
2018-07-15T23:42:05.413Z,24.40
2018-07-15T23:47:08.726Z,24.40
2018-07-15T23:52:11.951Z,24.30
2018-07-15T23:57:15.247Z,24.30
